createdAt,value
2019-04-27T00:20:33.241Z,5.40
2019-04-27T00:50:35.829Z,4.20
2019-04-27T01:20:38.799Z,6.15
2019-04-27T01:50:41.452Z,5.00
2019-04-27T02:20:44.517Z,4.28
2019-04-27T02:50:49.771Z,4.55
2019-04-27T03:20:51.781Z,5.33
2019-04-27T03:50:54.405Z,8.05
2019-04-27T04:20:57.044Z,7.37
2019-04-27T04:51:00.059Z,7.97
2019-04-27T05:21:02.883Z,5.90
2019-04-27T05:51:05.444Z,3.08
2019-04-27T06:21:09.614Z,6.33
2019-04-27T06:51:12.382Z,5.17
2019-04-27T07:21:18.746Z,5.78
2019-04-27T07:51:31.167Z,5.53
2019-04-27T08:21:23.534Z,5.00
2019-04-27T08:51:26.187Z,6.08
2019-04-27T09:21:29.353Z,6.67
2019-04-27T09:51:31.913Z,8.78
2019-04-27T10:21:34.522Z,7.65
2019-04-27T10:51:37.151Z,10.13
2019-04-27T11:21:39.753Z,10.72
2019-04-27T11:51:42.361Z,9.93
2019-04-27T12:21:46.389Z,8.70
2019-04-27T12:51:49.011Z,8.75
2019-04-27T13:21:51.731Z,6.40
2019-04-27T13:51:55.651Z,6.03
2019-04-27T14:21:59.649Z,6.30
2019-04-27T14:52:02.265Z,3.55
2019-04-27T15:22:04.890Z,3.02
2019-04-27T15:52:09.091Z,3.20
2019-04-27T16:22:11.796Z,2.90
2019-04-27T16:52:15.909Z,4.00
2019-04-27T17:22:20.203Z,4.85
2019-04-27T17:52:22.913Z,6.87
2019-04-27T18:22:25.540Z,8.30
2019-04-27T18:52:28.258Z,10.13
2019-04-27T19:22:30.947Z,11.22
2019-04-27T19:52:33.613Z,12.75
2019-04-27T20:22:36.309Z,14.20
2019-04-27T20:52:38.963Z,15.60
2019-04-27T21:22:41.774Z,17.25
2019-04-27T21:52:45.581Z,18.52
2019-04-27T22:22:48.691Z,23.53
2019-04-27T22:52:51.366Z,21.35
2019-04-27T23:22:54.290Z,21.42
2019-04-27T23:52:57.015Z,25.50
